createdAt,value
2019-04-27T00:04:04.105Z,8.37
2019-04-27T00:09:50.179Z,9.73
2019-04-27T00:14:54.401Z,10.07
2019-04-27T00:20:26.390Z,10.43
2019-04-27T00:25:29.829Z,11.03
2019-04-27T00:30:35.555Z,10.23
2019-04-27T00:35:48.229Z,10.43
2019-04-27T00:40:55.654Z,11.67
2019-04-27T00:45:58.575Z,12.27
2019-04-27T00:51:00.742Z,12.07
2019-04-27T00:56:16.198Z,12.17
2019-04-27T01:01:27.631Z,12.33
2019-04-27T01:06:30.901Z,11.80
2019-04-27T01:11:33.404Z,12.37
2019-04-27T01:16:35.748Z,14.13
2019-04-27T01:21:39.650Z,14.13
2019-04-27T01:27:01.911Z,15.17
2019-04-27T01:32:06.295Z,14.67
2019-04-27T01:37:09.563Z,15.70
2019-04-27T01:42:12.335Z,17.30
2019-04-27T01:47:14.497Z,16.67
2019-04-27T01:52:19.282Z,20.70
2019-04-27T01:57:21.740Z,19.10
2019-04-27T02:02:39.897Z,18.33
2019-04-27T02:07:43.339Z,19.07
2019-04-27T02:12:45.529Z,16.47
2019-04-27T02:17:50.693Z,15.97
2019-04-27T02:22:53.236Z,16.93
2019-04-27T02:28:01.271Z,13.60
2019-04-27T02:33:25.778Z,14.47
2019-04-27T02:38:30.278Z,12.30
2019-04-27T02:43:40.996Z,11.93
2019-04-27T02:48:55.598Z,11.47
2019-04-27T02:53:52.708Z,10.27
2019-04-27T02:58:56.169Z,11.13
2019-04-27T03:04:00.258Z,12.37
2019-04-27T03:09:05.702Z,9.27
2019-04-27T03:14:34.304Z,10.47
2019-04-27T03:19:40.055Z,8.50
2019-04-27T03:25:00.944Z,7.83
2019-04-27T03:30:05.577Z,8.60
2019-04-27T03:35:12.318Z,7.20
2019-04-27T03:40:12.916Z,6.97
2019-04-27T03:45:15.386Z,8.13
2019-04-27T03:50:23.961Z,10.73
2019-04-27T03:55:30.706Z,10.93
2019-04-27T04:00:33.851Z,12.40
2019-04-27T04:05:36.227Z,10.43
2019-04-27T04:10:44.656Z,13.43
2019-04-27T04:16:07.608Z,11.80
2019-04-27T04:21:09.613Z,14.80
2019-04-27T04:26:12.213Z,12.13
2019-04-27T04:31:14.908Z,11.40
2019-04-27T04:36:19.933Z,14.63
2019-04-27T04:41:30.365Z,15.10
2019-04-27T04:47:00.267Z,14.77
2019-04-27T04:52:02.277Z,15.77
2019-04-27T04:57:04.581Z,16.10
2019-04-27T05:02:06.907Z,14.27
2019-04-27T05:07:09.904Z,17.57
2019-04-27T05:12:12.346Z,19.77
2019-04-27T05:17:15.376Z,20.93
2019-04-27T05:22:19.424Z,20.90
2019-04-27T05:27:22.267Z,20.47
2019-04-27T05:32:25.256Z,22.17
2019-04-27T05:37:29.932Z,21.83
2019-04-27T05:42:31.967Z,24.93
2019-04-27T05:47:51.762Z,23.80
2019-04-27T05:52:53.331Z,24.63
2019-04-27T05:57:55.781Z,28.53
2019-04-27T06:02:59.029Z,23.57
2019-04-27T06:08:02.155Z,22.87
2019-04-27T06:13:04.638Z,22.33
2019-04-27T06:18:07.270Z,23.33
2019-04-27T06:23:09.401Z,21.60
2019-04-27T06:28:12.956Z,21.87
2019-04-27T06:33:28.046Z,23.03
2019-04-27T06:38:20.630Z,24.53
2019-04-27T06:43:22.917Z,28.30
2019-04-27T06:48:25.270Z,28.77
2019-04-27T06:53:29.158Z,27.33
2019-04-27T06:58:31.495Z,30.60
2019-04-27T07:03:33.720Z,29.00
2019-04-27T07:08:35.772Z,30.10
2019-04-27T07:13:39.047Z,28.17
2019-04-27T07:18:41.760Z,27.00
2019-04-27T07:24:03.592Z,28.00
2019-04-27T07:29:06.116Z,25.20
2019-04-27T07:34:09.322Z,25.30
2019-04-27T07:39:11.955Z,29.00
2019-04-27T07:44:38.973Z,26.80
2019-04-27T07:49:41.668Z,28.27
2019-04-27T07:54:43.882Z,30.27
2019-04-27T07:59:46.751Z,31.20
2019-04-27T08:04:50.522Z,34.20
2019-04-27T08:09:53.149Z,33.93
2019-04-27T08:14:55.973Z,33.00
2019-04-27T08:19:59.546Z,37.87
2019-04-27T08:25:02.218Z,37.60
2019-04-27T08:30:17.313Z,37.97
2019-04-27T08:35:19.618Z,37.33
2019-04-27T08:40:22.866Z,38.13
2019-04-27T08:45:26.078Z,40.57
2019-04-27T08:50:28.861Z,39.23
2019-04-27T08:55:31.350Z,38.37
2019-04-27T09:00:33.870Z,36.63
2019-04-27T09:05:36.683Z,33.50
2019-04-27T09:10:44.788Z,29.83
2019-04-27T09:15:55.045Z,30.57
2019-04-27T09:20:59.592Z,24.63
2019-04-27T09:26:01.767Z,27.50
2019-04-27T09:31:05.061Z,25.90
2019-04-27T09:36:07.875Z,20.63
2019-04-27T09:41:10.098Z,20.40
2019-04-27T09:46:12.956Z,16.87
2019-04-27T09:51:16.281Z,18.37
2019-04-27T09:56:18.980Z,19.83
2019-04-27T10:01:21.209Z,20.17
2019-04-27T10:06:24.282Z,19.13
2019-04-27T10:11:26.944Z,20.03
2019-04-27T10:16:30.382Z,23.27
2019-04-27T10:21:33.181Z,21.63
2019-04-27T10:26:36.228Z,21.63
2019-04-27T10:31:39.266Z,17.70
2019-04-27T10:36:41.410Z,19.97
2019-04-27T10:41:43.961Z,22.90
2019-04-27T10:46:46.481Z,20.33
2019-04-27T10:51:48.926Z,20.00
2019-04-27T10:56:51.656Z,14.83
2019-04-27T11:01:56.003Z,14.83
2019-04-27T11:07:05.498Z,14.87
2019-04-27T11:12:09.327Z,15.57
2019-04-27T11:17:11.916Z,18.40
2019-04-27T11:22:15.978Z,17.07
2019-04-27T11:27:18.465Z,16.07
2019-04-27T11:32:20.990Z,16.13
2019-04-27T11:37:28.601Z,16.67
2019-04-27T11:42:31.097Z,12.97
2019-04-27T11:47:34.062Z,10.43
2019-04-27T11:52:36.959Z,15.13
2019-04-27T11:57:39.181Z,16.23
2019-04-27T12:02:41.731Z,11.33
2019-04-27T12:07:47.496Z,11.53
2019-04-27T12:12:49.129Z,10.50
2019-04-27T12:17:51.681Z,12.07
2019-04-27T12:22:53.883Z,12.97
2019-04-27T12:28:06.170Z,9.17
2019-04-27T12:33:08.464Z,11.23
2019-04-27T12:38:11.340Z,11.33
2019-04-27T12:43:13.762Z,11.23
2019-04-27T12:48:16.257Z,10.13
2019-04-27T12:53:30.469Z,8.87
2019-04-27T12:58:42.354Z,9.67
2019-04-27T13:03:46.285Z,7.90
2019-04-27T13:08:49.128Z,7.63
2019-04-27T13:13:51.669Z,8.97
2019-04-27T13:18:53.862Z,8.70
2019-04-27T13:24:03.997Z,7.50
2019-04-27T13:29:00.955Z,8.30
2019-04-27T13:34:03.142Z,6.77
2019-04-27T13:39:06.853Z,7.00
2019-04-27T13:44:09.449Z,7.23
2019-04-27T13:49:28.354Z,7.87
2019-04-27T13:54:30.868Z,5.77
2019-04-27T13:59:33.157Z,8.67
2019-04-27T14:04:36.238Z,6.23
2019-04-27T14:09:39.314Z,6.10
2019-04-27T14:14:43.071Z,7.23
2019-04-27T14:19:45.374Z,5.87
2019-04-27T14:24:48.767Z,8.23
2019-04-27T14:29:51.501Z,7.87
2019-04-27T14:34:55.149Z,6.60
2019-04-27T14:39:57.940Z,6.67
2019-04-27T14:45:05.300Z,6.70
2019-04-27T14:50:08.964Z,8.80
2019-04-27T14:55:12.252Z,6.50
2019-04-27T15:00:16.447Z,6.70
2019-04-27T15:05:19.375Z,4.20
2019-04-27T15:10:21.877Z,6.13
2019-04-27T15:15:24.308Z,5.70
2019-04-27T15:20:33.066Z,5.30
2019-04-27T15:25:43.495Z,5.63
2019-04-27T15:30:54.737Z,6.13
2019-04-27T15:36:03.975Z,5.17
2019-04-27T15:41:13.932Z,6.57
2019-04-27T15:46:18.460Z,6.70
2019-04-27T15:51:21.307Z,6.83
2019-04-27T15:56:23.736Z,6.10
2019-04-27T16:01:29.666Z,9.67
2019-04-27T16:06:31.250Z,8.17
2019-04-27T16:11:34.315Z,4.90
2019-04-27T16:16:38.184Z,4.97
2019-04-27T16:21:47.079Z,6.37
2019-04-27T16:26:51.068Z,6.17
2019-04-27T16:31:50.507Z,9.03
2019-04-27T16:36:53.525Z,7.03
2019-04-27T16:41:56.460Z,9.20
2019-04-27T16:46:58.904Z,5.93
2019-04-27T16:52:01.208Z,7.57
2019-04-27T16:57:05.502Z,6.90
2019-04-27T17:02:08.340Z,7.87
2019-04-27T17:07:11.270Z,5.97
2019-04-27T17:12:13.925Z,7.03
2019-04-27T17:17:32.141Z,9.83
2019-04-27T17:22:35.720Z,8.17
2019-04-27T17:27:48.136Z,7.00
2019-04-27T17:33:01.503Z,8.47
2019-04-27T17:38:08.698Z,8.63
2019-04-27T17:43:10.560Z,8.03
2019-04-27T17:48:14.350Z,9.90
2019-04-27T17:53:18.715Z,6.93
2019-04-27T17:58:21.730Z,8.77
2019-04-27T18:03:23.939Z,9.93
2019-04-27T18:08:28.989Z,8.10
2019-04-27T18:13:31.869Z,7.27
2019-04-27T18:18:50.412Z,9.43
2019-04-27T18:23:55.418Z,8.27
2019-04-27T18:29:01.465Z,8.20
2019-04-27T18:34:03.240Z,12.70
2019-04-27T18:39:12.275Z,7.30
2019-04-27T18:44:13.673Z,10.27
2019-04-27T18:49:27.197Z,10.13
2019-04-27T18:54:33.082Z,11.90
2019-04-27T18:59:35.666Z,10.43
2019-04-27T19:04:38.167Z,8.37
2019-04-27T19:09:40.808Z,9.30
2019-04-27T19:14:42.997Z,4.47
2019-04-27T19:19:45.465Z,4.07
2019-04-27T19:24:48.162Z,5.20
2019-04-27T19:29:56.017Z,2.80
2019-04-27T19:34:59.329Z,4.53
2019-04-27T19:40:02.284Z,3.00
2019-04-27T19:45:07.661Z,4.43
2019-04-27T19:50:10.942Z,3.47
2019-04-27T19:55:14.187Z,2.93
2019-04-27T20:00:43.691Z,4.57
2019-04-27T20:05:46.367Z,4.50
2019-04-27T20:10:48.857Z,4.03
2019-04-27T20:15:51.770Z,2.20
2019-04-27T20:20:53.947Z,2.60
2019-04-27T20:25:56.548Z,4.70
2019-04-27T20:30:59.627Z,3.30
2019-04-27T20:36:02.338Z,3.03
2019-04-27T20:41:04.824Z,2.10
2019-04-27T20:46:07.095Z,2.70
2019-04-27T20:51:11.382Z,2.47
2019-04-27T20:56:13.954Z,8.20
2019-04-27T21:01:16.132Z,2.77
2019-04-27T21:06:27.746Z,8.03
2019-04-27T21:11:46.134Z,3.40
2019-04-27T21:16:48.635Z,5.17
2019-04-27T21:21:52.240Z,2.80
2019-04-27T21:26:54.770Z,6.23
2019-04-27T21:31:57.438Z,6.97
2019-04-27T21:37:01.058Z,4.43
2019-04-27T21:42:03.559Z,3.80
2019-04-27T21:47:06.541Z,6.47
2019-04-27T21:52:16.788Z,5.43
2019-04-27T21:57:18.957Z,3.70
2019-04-27T22:02:21.820Z,3.10
2019-04-27T22:07:25.116Z,4.87
2019-04-27T22:12:27.648Z,5.07
2019-04-27T22:17:30.471Z,3.97
2019-04-27T22:22:41.316Z,3.87
2019-04-27T22:27:43.728Z,4.87
2019-04-27T22:32:45.966Z,3.87
2019-04-27T22:37:48.377Z,4.00
2019-04-27T22:43:11.927Z,4.50
2019-04-27T22:48:14.605Z,4.60
2019-04-27T22:53:17.711Z,5.13
2019-04-27T22:58:21.787Z,5.30
2019-04-27T23:03:31.183Z,5.30
2019-04-27T23:08:33.717Z,3.97
2019-04-27T23:13:36.367Z,4.47
2019-04-27T23:18:38.537Z,4.70
2019-04-27T23:23:41.441Z,4.83
2019-04-27T23:28:43.736Z,11.43
2019-04-27T23:33:47.803Z,5.00
2019-04-27T23:38:51.121Z,6.97
2019-04-27T23:43:53.523Z,6.33
2019-04-27T23:48:56.475Z,9.60
2019-04-27T23:53:59.505Z,4.30
2019-04-27T23:59:02.056Z,5.60
